Meteo4 di Emilio Bellavite Il primo osservatorio Meteo di Verona  
 
domenica 19 maggio 2019
 
 
dati in tempo reale
Di seguito i dati in tempo reale delle stazioni on line della rete di Meteo4. Cliccando sul link della stazione, ove presente, si accederà al sito web personale.
Stazioni online
Località Giorno Ora Temp. Umid. Relat. Dew Point Press. Atm. Velocità Vento Direz. Vento Precip. Temp.
Min
Temp.
Max
Abano (PD) 19/05/19 12.10 15.0 °C 97 % 14.5 °C 1004.4 hPa 8.0 Km/h NNE 13.4 mm  12.8 °C 15.0 °C
Acquapendente (VT) 19/05/19 12.18 13.8 °C 90 % 12.2 °C 1004.5 hPa 0.0 Km/h S 6.3 mm  12.4 °C 15.3 °C
Acquaviva delle Fonti (BA) 19/05/19 12.18 20.5 °C 58 % 12.0 °C 1003.6 hPa 6.3 Km/h SW 0.0 mm  14.2 °C 21.3 °C
Ala (TN) 19/05/19 12.18 12.9 °C 85 % 10.4 °C 1004.5 hPa 0.0 Km/h NE 11.0 mm  11.1 °C 12.8 °C
Alleghe (BL) 19/05/19 12.18 8.5 °C 89 % 6.8 °C 992.9 hPa 2.2 Km/h SSW 8.7 mm  3.8 °C 8.8 °C
Alleghe Lago (BL) 19/05/19 12.18 8.4 °C 88 % 6.5 °C 1006.6 hPa 9.3 Km/h SW 1.0 mm  4.4 °C 8.4 °C
Ancona (AN) 19/05/19 12.10 17.0 °C 97 % 16.5 °C 1004.1 hPa 3.2 Km/h W 2.0 mm  13.8 °C 17.0 °C
Ancona loc. Brecce Bianche (AN) 19/05/19 12.15 17.5 °C 84 % 14.8 °C 1007.0 hPa 4.3 Km/h W 1.3 mm  13.6 °C 17.5 °C
Arenzano (GE) 19/05/19 12.18 14.2 °C 87 % 12.0 °C 1004.2 hPa 8.0 Km/h S 2.4 mm  12.3 °C 14.5 °C
Arquà Polesine (RO) 19/05/19 12.15 18.9 °C 83 % 15.9 °C 1004.4 hPa 0.0 Km/h N 0.2 mm  13.7 °C 19.4 °C
Arzignano loc. Castello (VI) 19/05/19 12.00 11.9 °C 96 % 11.3 °C 1003.1 hPa 0.0 Km/h NNE 18.8 mm  11.1 °C 11.9 °C
Arzignano Pugnello (VI) 19/05/19 12.14 10.8 °C 94 % 9.9 °C 1002.9 hPa 3.2 Km/h NNE 30.2 mm  9.9 °C 10.9 °C
Arzignano Tezze (VI) 19/05/19 00.09 11.9 °C 97 % 11.5 °C 1006.0 hPa 0.0 Km/h NNW 0.8 mm  11.9 °C 11.9 °C
Asiago Rifugio Val Formica (VI) 19/05/19 12.18 4.9 °C 96 % 4.3 °C 1005.9 hPa 10.0 Km/h NNE 17.0 mm  2.0 °C 4.9 °C
Avio (TN) 19/05/19 12.18 13.4 °C 90 % 11.8 °C 1004.9 hPa 0.0 Km/h WNW 4.7 mm  11.7 °C 13.5 °C
Badia Calavena loc. San Valentino (VR) 19/05/19 12.18 8.8 °C 95 % 8.0 °C 1002.2 hPa 16.1 Km/h NE 10.1 mm  8.7 °C 9.2 °C
Balbido (TN) 19/05/19 12.14 8.9 °C 100 % 8.9 °C 1007.1 hPa 0.5 Km/h SE 8.7 mm  7.7 °C 8.9 °C
Barbara (AN) 19/05/19 12.18 16.9 °C 79 % 13.2 °C 1005.6 hPa 14.8 Km/h NNE 3.1 mm  12.5 °C 17.3 °C
Barcellona P.G. Centro (ME) 19/05/19 12.18 19.3 °C 77 % 15.2 °C 1008.2 hPa 30.6 Km/h WSW 0.0 mm  16.2 °C 19.3 °C
Barcellona Pozzo di Gotto (ME) 19/05/19 12.18 18.4 °C 82 % 15.3 °C 1008.3 hPa 0.0 Km/h N 0.0 mm  16.3 °C 18.8 °C
Bardolino (VR) 19/05/19 12.14 13.3 °C 83 % 10.5 °C 997.0 hPa 20.9 Km/h ENE 8.4 mm  11.7 °C 13.3 °C
Bellaria Igea Marina (RN) 19/05/19 12.18 16.4 °C 85 % 13.9 °C 1002.9 hPa 4.8 Km/h NNE 0.2 mm  13.3 °C 16.7 °C
Bellaria Igea Marina2 (RN) 19/05/19 12.18 16.2 °C 88 % 14.2 °C 1002.6 hPa 8.0 Km/h NE 0.0 mm  13.5 °C 16.3 °C
Belluno Castion (BL) 19/05/19 12.00 10.3 °C 95 % 9.6 °C 1005.0 hPa 0.0 Km/h SW 18.6 mm  8.3 °C 10.5 °C
Besenello (TN) 19/05/19 12.15 11.4 °C 94 % 10.5 °C 1005.7 hPa 2.6 Km/h W 10.2 mm  9.9 °C 11.4 °C
Besozzo (VA) 19/05/19 12.14 12.5 °C 98 % 12.2 °C 1004.0 hPa 0.0 Km/h NW 5.3 mm  9.9 °C 12.6 °C
Bientina (PI) 19/05/19 12.15 13.7 °C 98 % 13.4 °C 1002.3 hPa 7.2 Km/h W 34.5 mm  13.1 °C 14.3 °C
Bisignano (CS) 19/05/19 12.14 19.4 °C 53 % 9.6 °C 1003.8 hPa 14.8 Km/h SW 0.0 mm  13.8 °C 21.2 °C
Bitti (NU) 18/05/19 19.26 12.8 °C 79 % 9.2 °C 1031.3 hPa 13.3 Km/h SE 4.7 mm  10.8 °C 15.9 °C
Bolognano di Arco (TN) 19/05/19 12.18 12.3 °C 96 % 11.7 °C 1005.4 hPa 6.4 Km/h SSW 6.6 mm  10.6 °C 12.4 °C
Bonorva (SS) 19/05/19 11.40 13.9 °C 74 % 9.3 °C 1007.7 hPa 11.3 Km/h SSW 1.0 mm  8.8 °C 13.9 °C
Borgo Valsugana (TN) 19/05/19 06.24 9.9 °C 98 % 9.6 °C 1007.0 hPa 0.0 Km/h SSE 13.7 mm  9.9 °C 10.7 °C
Borore (NU) 19/05/19 12.19 15.3 °C 61 % 7.8 °C 1007.9 hPa 15.0 Km/h SW 2.0 mm  9.3 °C 15.9 °C
Bosco Chiesanuova ARPAV (VR) 19/05/19 12.00 8.2 °C 99 % 8.1 °C  hPa 9.0 Km/h ENE 10.4 mm  7.5 °C 8.2 °C
Brebbia (VA) 19/05/19 12.00 13.1 °C 92 % 11.8 °C 1005.6 hPa 0.0 Km/h N 6.0 mm  10.6 °C 13.1 °C
Brendola (VI) 19/05/19 12.13 13.3 °C 99 % 13.1 °C 989.8 hPa 8.6 Km/h NW 0.0 mm  8.3 °C 20.3 °C
Bresega (PD) 19/05/19 12.15 14.5 °C 92 % 13.3 °C 1003.1 hPa 5.6 Km/h WNW 5.1 mm  12.8 °C 15.5 °C
Brognoligo (VR) 19/05/19 06.24 13.0 °C 85 % 10.5 °C 1001.2 hPa 1.8 Km/h NNE 0.8 mm  12.8 °C 13.9 °C
Brolo c/da Parrazzà (ME) 19/05/19 12.10 16.8 °C 81 % 13.5 °C 1008.6 hPa 10.0 Km/h W 0.2 mm  14.4 °C 17.3 °C
Brugine2 (PD) 19/05/19 12.12 15.4 °C 94 % 14.5 °C 1004.2 hPa 2.2 Km/h NE 6.0 mm  13.8 °C 15.7 °C
Brustolé ARPAV (VI) 19/05/19 12.00 10.6 °C  %  °C  hPa 0.0 Km/h 38.4 mm  9.3 °C 10.6 °C
Buccheri (SR) 19/05/19 10.13 13.7 °C 75 % 9.3 °C 1008.7 hPa 18.4 Km/h W 0.3 mm  8.4 °C 13.7 °C
Budoia (PN) 19/05/19 12.15 14.6 °C 94 % 13.6 °C 1005.4 hPa 0.0 Km/h ESE 50.8 mm  12.3 °C 14.8 °C
Ca' Gallo (PU) 19/05/19 06.24 11.5 °C 92 % 10.2 °C 999.5 hPa 2.9 Km/h NW 0.5 mm  11.5 °C 13.3 °C
Calcinato (BS) 19/05/19 12.18 12.3 °C 89 % 10.5 °C 1006.3 hPa 6.4 Km/h ENE 11.7 mm  11.4 °C 13.3 °C
Calliano (TN) 19/05/19 12.18 11.6 °C 92 % 10.3 °C 1004.7 hPa 8.0 Km/h NNE 11.0 mm  10.1 °C 11.6 °C
Calmasino ARPAV (VR) 19/05/19 12.00 13.2 °C 77 % 9.3 °C 1004.1 hPa 9.4 Km/h NNE 6.2 mm  11.8 °C 13.9 °C
Caltabellotta (AG) 19/05/19 12.05 15.6 °C 61 % 8.1 °C 1008.1 hPa 0.0 Km/h SE 0.0 mm  10.6 °C 15.8 °C
Cammarata (AG) 19/05/19 12.15 16.8 °C 68 % 10.9 °C 1010.6 hPa 9.7 Km/h N 0.0 mm  10.5 °C 16.9 °C
Campoformido (UD) 19/05/19 12.18 16.5 °C 78 % 12.6 °C 1005.0 hPa 0.0 Km/h E 1.8 mm  12.2 °C 16.4 °C
Campomolon ARPAV (VI) 19/05/19 11.00 2.4 °C  %  °C  hPa 7.6 Km/h ENE 0.0 mm  0.8 °C 2.5 °C
Capodimonte (VT) 19/05/19 12.15 13.3 °C 94 % 12.4 °C 1005.9 hPa 2.4 Km/h NNW 3.8 mm  12.3 °C 14.8 °C
Caprarola Centro Storico (VT) 19/05/19 12.18 13.3 °C 96 % 12.7 °C 1007.0 hPa 2.2 Km/h SE 12.6 mm  10.2 °C 13.3 °C
Carceri (PD) 18/05/19 01.45 13.8 °C 85 % 11.7 °C 1007.0 hPa 14.5 Km/h N 0.3 mm  13.8 °C 14.3 °C
Carezza (BZ) 19/05/19 06.24 2.5 °C 99 % 2.3 °C 1014.8 hPa 0.0 Km/h NE 11.7 mm  2.2 °C 3.0 °C
Carmignano loc. Seano (PO) 19/05/19 12.19 15.5 °C 87 % 13.3 °C 1004.0 hPa 1.9 Km/h SW 7.6 mm  13.4 °C 15.7 °C
Carpi (MO) 19/05/19 12.14 14.6 °C 91 % 13.2 °C 1003.2 hPa 3.0 Km/h NW 0.3 mm  12.3 °C 14.6 °C
Cartigliano (VI) 19/05/19 12.18 12.6 °C 91 % 11.1 °C 1003.8 hPa 3.9 Km/h N 49.8 mm  11.2 °C 12.6 °C
Casotto (VI) 19/05/19 12.14 11.2 °C 96 % 10.6 °C 1003.4 hPa 0.0 Km/h NW 25.6 mm  8.6 °C 11.2 °C
Cassano Magnago (VA) 19/05/19 06.24 11.3 °C 95 % 10.5 °C 1003.6 hPa 0.0 Km/h NNE 3.3 mm  11.3 °C 11.9 °C
Castana ARPAV (VI) 19/05/19 12.00 10.1 °C 100 % 10.1 °C  hPa 0.0 Km/h ENE 31.4 mm  0.0 °C 10.1 °C
Castel d'Azzano (VR) 19/05/19 12.05 14.3 °C 88 % 12.3 °C 732.4 hPa 4.8 Km/h E 7.2 mm  13.1 °C 14.7 °C
Castelferro (AL) 19/05/19 12.18 12.7 °C 99 % 12.6 °C 1004.7 hPa 3.2 Km/h N 2.6 mm  11.1 °C 12.7 °C
Castelfranco Veneto (TV) 19/05/19 12.10 13.6 °C 100 % 13.6 °C 1005.2 hPa 1.3 Km/h ENE 21.2 mm  11.4 °C 13.6 °C
Castelgomberto (VI) 18/05/19 09.41 12.7 °C 83 % 9.9 °C 1006.5 hPa 9.3 Km/h N 2.0 mm  11.5 °C 14.7 °C
Castelnuovo V.C. (PI) 19/05/19 12.13 11.5 °C 99 % 11.3 °C 1004.0 hPa 3.5 Km/h WSW 23.6 mm  9.3 °C 11.5 °C
Castiglione del Lago (PG) 19/05/19 12.10 14.8 °C 85 % 12.3 °C 1005.9 hPa 0.0 Km/h --- 1.2 mm  11.7 °C 18.9 °C
Castiglione della Pescaia (GR) 19/05/19 12.18 17.9 °C 76 % 13.6 °C 1005.2 hPa 5.4 Km/h SSW 27.5 mm  12.6 °C 18.0 °C
Castiglione della Pescaia Vaticino (GR) 19/05/19 12.15 16.1 °C 79 % 12.5 °C 996.0 hPa 7.6 Km/h W 28.3 mm  13.0 °C 16.1 °C
Cavaria con Premezzo (VA) 19/05/19 12.14 13.4 °C 90 % 11.8 °C 1003.9 hPa 2.6 Km/h NE 8.6 mm  11.3 °C 13.5 °C
Cefalù (PA) 19/05/19 12.18 17.9 °C 74 % 13.2 °C 1004.8 hPa 5.4 Km/h ENE 0.0 mm  14.7 °C 17.9 °C
Cerea (VR) 19/05/19 10.20 13.3 °C 93 % 12.2 °C 1003.9 hPa 11.3 Km/h NE 2.8 mm  12.6 °C 13.4 °C
Cerea2 (VR) 19/05/19 12.15 14.2 °C 86 % 11.9 °C 1004.9 hPa 14.0 Km/h NNE 3.8 mm  12.5 °C 14.3 °C
Chieti (CH) 19/05/19 12.15 17.7 °C 76 % 13.4 °C 1003.7 hPa 3.0 Km/h NNW 2.0 mm  12.4 °C 20.6 °C
Chiusi (SI) 19/05/19 06.20 11.9 °C 96 % 11.3 °C 1003.9 hPa 0.0 Km/h W 0.0 mm  11.6 °C 12.0 °C
Cima Grappa (TV) 19/05/19 12.19 3.8 °C 99 % 3.7 °C 1008.3 hPa 17.4 Km/h N 28.6 mm  2.2 °C 4.0 °C
Cismon del Grappa loc. Corlo (VI) 19/05/19 12.19 9.4 °C 99 % 9.3 °C 1007.1 hPa 3.2 Km/h NE 29.7 mm  8.4 °C 9.4 °C
Civita Castellana (VT) 19/05/19 12.19 14.9 °C 10 % -16.5 °C 1005.3 hPa 6.5 Km/h SSE 2.0 mm  12.5 °C 16.2 °C
Codroipo (UD) 19/05/19 12.15 15.7 °C 87 % 13.6 °C 1003.4 hPa 0.8 Km/h N 7.6 mm  12.5 °C 15.7 °C
Cogollo del Cengio (VI) 19/05/19 12.16 11.6 °C 99 % 11.4 °C 1004.3 hPa 3.5 Km/h NW 21.7 mm  10.3 °C 11.6 °C
Colle del Piccolo San Bernardo La Thuile (AO) 19/05/19 12.14 1.7 °C 91 % 0.4 °C 1004.2 hPa 3.5 Km/h SSW 0.4 mm  -0.9 °C 2.5 °C
Cologna Veneta Sant'Andrea (VR) 18/05/19 16.00 13.4 °C 1 % -41.8 °C 1005.5 hPa 9.7 Km/h E 6.8 mm  12.2 °C 15.7 °C
Colognola ai Colli (VR) 19/05/19 12.10 14.0 °C 88 % 12.0 °C 1004.0 hPa 14.5 Km/h N 0.0 mm  13.0 °C 14.3 °C
Contrada Dosso Gervasio (VR) 19/05/19 12.00 8.9 °C 95 % 8.1 °C 1003.0 hPa 0.0 Km/h NE 10.0 mm  8.2 °C 9.1 °C
Cornedo Vicentino loc. Muzzolon (VI) 19/05/19 06.24 10.1 °C 97 % 9.7 °C 1003.9 hPa 1.1 Km/h NW 12.7 mm  10.0 °C 10.3 °C
Corrubio di S. Anna d'Alfaedo (VR) 19/05/19 12.15 9.2 °C 92 % 8.0 °C 1005.2 hPa 6.4 Km/h NW 10.8 mm  8.2 °C 10.2 °C
Cosseria Lidora (SV) 19/05/19 12.00 11.1 °C 94 % 10.2 °C 1004.2 hPa 3.2 Km/h WNW 9.6 mm  9.1 °C 11.3 °C
Costa di Vittorio Veneto (TV) 19/05/19 06.24 11.5 °C 96 % 10.9 °C 1003.9 hPa 0.0 Km/h NE 10.2 mm  11.5 °C 12.1 °C
Costa Volpino (BG) 19/05/19 12.11 12.3 °C 90 % 10.7 °C 1000.7 hPa 3.2 Km/h E 3.0 mm  11.0 °C 12.5 °C
Dorno (PV) 19/05/19 12.19 14.1 °C 93 % 12.9 °C 1004.7 hPa 3.9 Km/h NE 4.4 mm  12.7 °C 14.3 °C
Dossobuono (VR) 19/05/19 12.18 13.9 °C 91 % 12.5 °C 1005.2 hPa 16.1 Km/h ENE 7.4 mm  12.5 °C 14.6 °C
Erbezzo Passo Fittanze (VR) 19/05/19 06.24 3.3 °C 100 % 3.3 °C 1007.0 hPa 11.9 Km/h WNW 2.3 mm  3.3 °C 3.9 °C
Esine (BS) 19/05/19 12.19 14.1 °C 84 % 11.4 °C 1003.8 hPa 0.0 Km/h SW 1.5 mm  11.7 °C 14.2 °C
Falzè di Piave (TV) 19/05/19 12.14 15.0 °C 92 % 13.7 °C 1005.7 hPa 0.0 Km/h --- 24.2 mm  11.8 °C 15.1 °C
Farra di Soligo (TV) 19/05/19 12.15 13.0 °C 83 % 10.2 °C 998.9 hPa 2.2 Km/h WNW 27.6 mm  10.2 °C 13.0 °C
Feltre Celarda (BL) 19/05/19 12.18 11.4 °C 97 % 10.9 °C 1004.6 hPa 0.0 Km/h E 23.3 mm  9.4 °C 11.4 °C
Ferrara di M.B. (VR) 19/05/19 12.05 6.4 °C 90 % 4.9 °C 1001.0 hPa 11.3 Km/h N 15.4 mm  5.0 °C 6.6 °C
Fiavè loc. Ballino (TN) 19/05/19 12.14 8.9 °C 96 % 8.3 °C 1005.0 hPa 4.8 Km/h N 11.9 mm  7.8 °C 8.9 °C
Filo di Argenta (FE) 19/05/19 12.15 15.9 °C 88 % 13.9 °C 1004.0 hPa 1.9 Km/h W 0.0 mm  12.6 °C 15.9 °C
Fogliano Redipuglia (GO) 19/05/19 12.15 15.3 °C 88 % 13.3 °C 1004.9 hPa 0.0 Km/h W 3.0 mm  12.5 °C 17.1 °C
Foligno (PG) 19/05/19 12.15 13.4 °C 86 % 11.1 °C 1004.6 hPa 1.6 Km/h SSW 4.5 mm  12.4 °C 15.9 °C
Fontanafredda (PN) 19/05/19 12.18 14.7 °C 96 % 14.0 °C 1004.7 hPa 2.6 Km/h E 9.9 mm  12.7 °C 15.7 °C
Forchiade S. Tomaso Ag. (BL) 19/05/19 06.24 5.0 °C 98 % 4.7 °C 993.8 hPa 0.0 Km/h S 6.3 mm  4.6 °C 6.1 °C
Fumane Contrada La Ca (VR) 19/05/19 06.24 10.4 °C 94 % 9.5 °C 1006.3 hPa 3.2 Km/h S 2.8 mm  10.3 °C 11.1 °C
Gaggiano (MI) 19/05/19 12.16 13.4 °C 96 % 12.8 °C 1004.3 hPa 1.8 Km/h WNW 12.8 mm  11.7 °C 13.4 °C
Gallio (VI) 19/05/19 06.20 5.1 °C 97 % 4.7 °C 1006.0 hPa 1.6 Km/h WSW 26.4 mm  5.1 °C 5.9 °C
Gardolo (TN) 19/05/19 12.14 12.6 °C 90 % 11.0 °C 1005.8 hPa 0.0 Km/h NE 4.6 mm  10.9 °C 12.8 °C
Genova (GE) 19/05/19 12.18 14.9 °C 86 % 12.6 °C 1006.6 hPa 6.4 Km/h ENE 2.0 mm  13.6 °C 16.8 °C
Genova Erzelli (GE) 19/05/19 12.18 15.7 °C 80 % 12.2 °C 1003.0 hPa 3.7 Km/h N 1.8 mm  12.6 °C 16.9 °C
Genova Oregina (GE) 19/05/19 12.18 13.8 °C 81 % 10.6 °C 1003.7 hPa 0.0 Km/h NNW 4.0 mm  12.3 °C 15.6 °C
Gorizia (GO) 19/05/19 12.16 15.2 °C 84 % 12.5 °C 1004.4 hPa 0.0 Km/h NNE 0.0 mm  12.4 °C 15.2 °C
Grancare di Villabalzana (VI) 19/05/19 06.24 10.1 °C 96 % 9.5 °C 989.7 hPa 0.4 Km/h SE 8.6 mm  10.1 °C 10.7 °C
Iglesias (CI) 19/05/19 12.16 16.4 °C 63 % 9.3 °C 1009.6 hPa 14.4 Km/h W 0.0 mm  11.1 °C 17.0 °C
Illasi ARPAV (VR) 19/05/19 12.00 13.1 °C 100 % 13.1 °C  hPa 11.9 Km/h NE 8.6 mm  12.4 °C 13.8 °C
Isera loc. Reviano (TN) 19/05/19 12.19 11.4 °C 94 % 10.5 °C 1004.3 hPa 3.2 Km/h NNE 8.5 mm  10.0 °C 11.4 °C
Isola d'Elba Marina di Campo (LI) 18/05/19 12.00 17.6 °C 81 % 14.3 °C 964.9 hPa 3.2 Km/h S 35.0 mm  13.9 °C 17.7 °C
Lavis (TN) 19/05/19 11.15 12.5 °C 89 % 10.6 °C 1006.1 hPa 0.0 Km/h NW 13.8 mm  10.3 °C 12.9 °C
Laxolo (BG) 19/05/19 12.16 12.8 °C 99 % 12.6 °C 1001.1 hPa 0.5 Km/h N 4.1 mm  10.4 °C 14.3 °C
Legnago (VR) 19/05/19 12.15 14.3 °C 97 % 13.9 °C 1003.6 hPa 4.8 Km/h ENE 8.4 mm  12.9 °C 14.3 °C
Lendinara2 (RO) 19/05/19 06.24 13.2 °C 93 % 12.1 °C 1003.8 hPa 0.0 Km/h NNE 0.0 mm  12.5 °C 13.2 °C
Lesmo (MB) 19/05/19 12.10 13.8 °C 91 % 12.4 °C 1004.8 hPa 0.0 Km/h WNW 8.3 mm  11.3 °C 13.9 °C
Limbiate (MB) 19/05/19 08.35 12.0 °C 99 % 11.8 °C 995.5 hPa 0.0 Km/h NE 3.8 mm  11.5 °C 12.1 °C
Loano (SV) 19/05/19 12.10 14.7 °C 87 % 12.5 °C 1004.0 hPa 6.0 Km/h N 1.6 mm  12.8 °C 15.4 °C
Lovere (BG) 19/05/19 12.17 14.5 °C 72 % 0.0 °C 1004.5 hPa 0.0 Km/h N 2.0 mm  13.3 °C 14.8 °C
Lugagnano (VR) 19/05/19 12.14 14.2 °C 91 % 12.8 °C 1002.7 hPa 9.6 Km/h SE 5.8 mm  11.9 °C 14.4 °C
Lugo di Vicenza (VI) 19/05/19 12.14 11.6 °C 92 % 10.3 °C 1003.4 hPa 3.2 Km/h N 50.8 mm  10.5 °C 11.7 °C
Lusiana Sciessere (VI) 19/05/19 12.14 8.9 °C 95 % 8.1 °C 1005.8 hPa 1.4 Km/h WNW 56.6 mm  7.5 °C 9.2 °C
Malnate San Salvatore (VA) 19/05/19 12.15 13.2 °C 94 % 12.2 °C 1005.0 hPa 0.0 Km/h SE 9.0 mm  10.7 °C 13.2 °C
Malo ARPAV (VI) 19/05/19 12.00 12.1 °C 100 % 12.1 °C 1004.8 hPa 4.3 Km/h N 43.8 mm  11.3 °C 12.1 °C
Marano di Valpolicella ARPAV (VR) 19/05/19 12.00 13.4 °C 88 % 11.5 °C  hPa 1.8 Km/h E 4.4 mm  11.6 °C 13.4 °C
Marano Vicentino2 (VI) 19/05/19 12.15 11.6 °C 97 % 11.1 °C 1003.4 hPa 0.0 Km/h NNE 31.6 mm  10.9 °C 11.5 °C
Margone (TN) 19/05/19 05.00 6.4 °C 97 % 5.9 °C 1007.9 hPa 5.9 Km/h N 1.6 mm  6.2 °C 6.9 °C
Marina di Montemarciano (AN) 19/05/19 12.15 15.7 °C 93 % 14.5 °C 1004.0 hPa 0.0 Km/h --- 4.0 mm  13.4 °C 15.7 °C
Marineo (PA) 19/05/19 12.18 17.9 °C 62 % 10.5 °C 1007.8 hPa 6.4 Km/h NNW 0.0 mm  11.9 °C 17.9 °C
Marostica Valle San Floriano (VI) 19/05/19 12.15 12.3 °C 98 % 12.0 °C 1005.9 hPa 0.0 Km/h S 37.2 mm  10.9 °C 12.3 °C
Marta (VT) 19/05/19 12.15 13.7 °C 91 % 12.3 °C 1003.5 hPa 0.0 Km/h SSW 3.7 mm  12.0 °C 14.6 °C
Martignano (TN) 19/05/19 12.14 10.5 °C 99 % 10.3 °C 1004.1 hPa 1.6 Km/h NNE 13.4 mm  9.1 °C 10.5 °C
Masiera di Bagnacavallo (RA) 19/05/19 12.15 18.3 °C 80 % 14.8 °C 1001.9 hPa 3.6 Km/h ESE 0.0 mm  13.2 °C 18.2 °C
Massignano (AP) 19/05/19 12.19 19.6 °C 68 % 13.5 °C 1003.7 hPa 6.8 Km/h W 0.5 mm  13.4 °C 19.9 °C
Massone di Arco (TN) 19/05/19 12.15 12.1 °C 94 % 11.2 °C 1004.6 hPa 3.0 Km/h SSO 4.7 mm  11.0 °C 12.1 °C
Merlara (PD) 19/05/19 12.10 13.4 °C 68 % 7.7 °C 1003.0 hPa 8.0 Km/h NE 12.7 mm  12.3 °C 13.4 °C
Mezzana Bigli (PV) 19/05/19 12.15 14.0 °C 92 % 12.7 °C 1003.3 hPa 0.4 Km/h N 6.1 mm  11.7 °C 14.1 °C
Migliarino (FE) 19/05/19 12.18 18.6 °C 73 % 13.7 °C 1001.8 hPa 2.6 Km/h S 0.0 mm  14.3 °C 18.6 °C
Miglionico (MT) 19/05/19 12.10 17.8 °C 71 % 12.5 °C 1001.8 hPa 1.6 Km/h SSE 0.0 mm  11.8 °C 18.3 °C
Miola di Piné (TN) 19/05/19 12.16 8.9 °C 94 % 8.0 °C 1006.0 hPa 0.0 Km/h W 14.1 mm  6.1 °C 8.9 °C
Mirabella Imbaccari (CT) 19/05/19 12.14 20.0 °C 47 % 8.3 °C 1009.7 hPa 7.4 Km/h W 0.0 mm  11.4 °C 20.0 °C
Mizzole (VR) 19/05/19 12.15 13.9 °C 86 % 11.6 °C 1004.4 hPa 1.1 Km/h WSW 7.4 mm  13.7 °C 15.3 °C
Monasterolo Torinese (TO) 19/05/19 10.00 10.1 °C 91 % 8.7 °C 1001.0 hPa 0.0 Km/h --- 3.1 mm  8.8 °C 10.2 °C
Moneglia loc. Casale (GE) 19/05/19 12.16 13.2 °C 94 % 12.3 °C 1005.2 hPa 0.0 Km/h SSW 3.8 mm  12.7 °C 14.1 °C
Moneglia loc. La Secca (GE) 19/05/19 12.16 15.0 °C 89 % 13.2 °C 1003.4 hPa 1.6 Km/h WSW 1.5 mm  14.0 °C 15.8 °C
Mongrando San Michele (BI) 19/05/19 12.10 13.1 °C 78 % 9.4 °C 1004.1 hPa 1.6 Km/h SSE 5.8 mm  9.1 °C 13.2 °C
Monselice (PD) 19/05/19 12.18 15.8 °C 90 % 14.1 °C 997.1 hPa 22.0 Km/h SSE 1.8 mm  13.3 °C 15.9 °C
Montagna in Valtellina (SO) 19/05/19 12.19 15.7 °C 77 % 11.6 °C 1003.5 hPa 0.6 Km/h WSW 0.5 mm  11.0 °C 16.7 °C
Monte Baldo Nord ARPAV (VR) 19/05/19 11.00 1.8 °C 100 % 1.8 °C 1006.3 hPa 27.7 Km/h E 0.0 mm  1.2 °C 1.8 °C
Monte Tomba ARPAV (VR) 19/05/19 11.00 3.0 °C 100 % 3.0 °C  hPa 19.4 Km/h NE 0.0 mm  2.2 °C 3.5 °C
Montebello Vicentino loc. Selva (VI) 19/05/19 12.19 12.1 °C 88 % 10.2 °C 1004.1 hPa 15.0 Km/h NNE 12.7 mm  11.3 °C 12.3 °C
Montecchio Maggiore Sant'Urbano (VI) 19/05/19 07.04 10.6 °C 85 % 8.1 °C 1012.8 hPa 5.0 Km/h NE 13.5 mm  10.6 °C 11.6 °C
Monteforte d'Alpone2 (VR) 19/05/19 12.20 13.6 °C 90 % 11.9 °C 1002.9 hPa 19.3 Km/h N 7.8 mm  12.3 °C 14.1 °C
Montelabbate (PU) 19/05/19 07.03 13.1 °C 93 % 11.9 °C 998.5 hPa 2.4 Km/h SSE 0.0 mm  12.8 °C 13.8 °C
Montopoli in val d'Arno Loc. Capanne (PI) 17/05/19 00.20 11.0 °C 84 % 8.5 °C 1011.0 hPa 0.6 Km/h E 0.0 mm  11.0 °C 11.7 °C
Montorio (VR) 19/05/19 07.04 14.4 °C 80 % 11.0 °C 1005.6 hPa 15.4 Km/h NE 0.5 mm  14.4 °C 15.6 °C
Montorso Vicentino (VI) 19/05/19 12.18 11.0 °C 96 % 10.4 °C 1004.5 hPa 1.6 Km/h E 20.2 mm  10.1 °C 11.0 °C
Morbegno (SO) 19/05/19 12.19 14.9 °C 80 % 11.5 °C 0.0 hPa 11.5 Km/h WSW 0.5 mm  11.2 °C 15.3 °C
Musigliano (PI) 19/05/19 12.16 14.9 °C 94 % 13.9 °C 1003.6 hPa 1.0 Km/h NE 15.9 mm  14.1 °C 15.5 °C
Muzzano (BI) 19/05/19 12.10 12.3 °C 92 % 11.0 °C 1003.2 hPa 1.6 Km/h E 4.0 mm  9.0 °C 12.3 °C
Nichelino (TO) 19/05/19 11.40 13.3 °C 88 % 11.4 °C 1006.9 hPa 9.7 Km/h NNW 4.5 mm  10.9 °C 13.5 °C
Novara (NO) 19/05/19 12.10 13.1 °C 86 % 10.8 °C 1004.0 hPa 0.0 Km/h --- 9.4 mm  11.2 °C 13.3 °C
Onara extraurbana (PD) 19/05/19 09.49 12.7 °C 96 % 12.1 °C 1000.8 hPa 0.0 Km/h SSW 30.2 mm  12.0 °C 12.7 °C
Oppeano (VR) 19/05/19 12.15 13.3 °C 92 % 12.0 °C 1000.4 hPa 0.0 Km/h NE 6.3 mm  12.6 °C 13.8 °C
Oristano (OR) 19/05/19 12.19 17.1 °C 69 % 11.3 °C 1008.2 hPa 2.8 Km/h SSW 1.4 mm  11.9 °C 17.2 °C
Orosei (NU) 19/05/19 12.16 17.9 °C 55 % 8.7 °C 1007.0 hPa 17.7 Km/h SSW 0.0 mm  13.0 °C 18.3 °C
Ortonovo (SP) 19/05/19 12.15 15.7 °C 89 % 13.9 °C 1004.9 hPa 9.7 Km/h SSW 6.3 mm  12.2 °C 15.7 °C
Orvieto (TR) 19/05/19 12.15 15.3 °C 85 % 12.8 °C 1002.2 hPa 2.4 Km/h SSE 3.6 mm  11.5 °C 15.9 °C
Ovaro loc. Liariis (UD) 19/05/19 12.00 12.1 °C 91 % 10.7 °C 1006.4 hPa 0.0 Km/h WSW 6.2 mm  8.7 °C 12.3 °C
Pace del Mela (ME) 19/05/19 12.15 18.5 °C 73 % 13.6 °C 1001.8 hPa 16.0 Km/h N 0.0 mm  15.1 °C 18.5 °C
Padergnone (TN) 19/05/19 12.00 12.1 °C 93 % 11.0 °C 1005.8 hPa 0.0 Km/h N 10.8 mm  10.9 °C 12.3 °C
Parella (TO) 19/05/19 07.06 10.3 °C 96 % 9.7 °C 1002.3 hPa 0.0 Km/h W 0.3 mm  10.0 °C 10.8 °C
Passo Campogrosso ARPAV (VI) 19/05/19 11.00 4.2 °C 100 % 4.2 °C  hPa 7.6 Km/h W 0.0 mm  2.8 °C 4.2 °C
Pastrengo (VR) 13/05/19 08.04 15.7 °C 31 % -1.4 °C 1019.7 hPa 9.8 Km/h N 0.0 mm  14.0 °C 15.7 °C
Pastrengo Corné (VR) 19/05/19 12.19 12.9 °C 94 % 11.9 °C 1002.8 hPa 0.0 Km/h ENE 8.6 mm  10.9 °C 13.2 °C
Pecetto Torinese (TO) 19/05/19 07.04 9.7 °C 94 % 8.8 °C 1004.3 hPa 0.0 Km/h NW 1.5 mm  9.5 °C 9.8 °C
Pedemonte (VR) 19/05/19 12.10 14.5 °C 93 % 13.4 °C 1003.6 hPa 0.0 Km/h N 9.6 mm  12.3 °C 14.7 °C
Perugia San Mariano (PG) 19/05/19 12.14 15.2 °C 90 % 13.6 °C 1004.5 hPa 3.3 Km/h --- 1.2 mm  11.9 °C 15.1 °C
Pescantina Are (VR) 19/05/19 12.10 14.1 °C 96 % 13.5 °C 1003.9 hPa 0.0 Km/h WNW 6.9 mm  11.7 °C 14.2 °C
Peschiera del Garda (VR) 19/05/19 12.15 13.2 °C 89 % 11.4 °C 1004.2 hPa 1.6 Km/h NNE 5.8 mm  11.6 °C 13.5 °C
Pian di Castagné (VR) 17/05/19 00.05 12.8 °C 65 % 6.4 °C 1011.1 hPa 3.2 Km/h NE 0.0 mm  12.8 °C 12.8 °C
Pian di Castagné2 (VR) 19/05/19 07.04 11.2 °C 93 % 10.1 °C 1004.6 hPa 23.3 Km/h SW 0.5 mm  10.9 °C 11.5 °C
Pila Valsesia (VC) 19/05/19 12.10 10.5 °C 94 % 9.6 °C 1002.5 hPa 0.0 Km/h --- 6.0 mm  7.8 °C 10.5 °C
Piovà Massaia (AT) 19/05/19 12.18 13.2 °C 90 % 11.6 °C 1003.1 hPa 6.5 Km/h ENE 7.4 mm  9.6 °C 13.2 °C
Piraino contr. Fiumara (ME) 19/05/19 12.15 18.7 °C 74 % 13.9 °C 1009.4 hPa 5.0 Km/h S 0.0 mm  14.1 °C 19.0 °C
Pisa zona I Passi (PI) 19/05/19 12.19 14.4 °C 94 % 13.4 °C 1005.3 hPa 5.0 Km/h NW 52.6 mm  13.4 °C 14.4 °C
Pojana Maggiore Cagnano (VI) 19/05/19 12.11 14.5 °C 94 % 13.5 °C 1001.0 hPa 0.0 Km/h 12.0 mm  12.6 °C 14.5 °C
Pomezia (RM) 19/05/19 12.18 17.3 °C 80 % 13.8 °C 1004.3 hPa 17.7 Km/h SW 0.8 mm  13.6 °C 17.3 °C
Ponte San Nicolò (PD) 19/05/19 07.04 13.9 °C 95 % 13.2 °C 1003.7 hPa 3.2 Km/h NE 1.3 mm  13.8 °C 14.6 °C
Ponte San Pellegrino (MO) 19/05/19 12.19 14.3 °C 99 % 14.1 °C 1006.7 hPa 5.0 Km/h N 6.6 mm  12.2 °C 14.3 °C
Pordenone (PN) 19/05/19 12.15 15.9 °C 89 % 14.1 °C 1004.9 hPa 3.2 Km/h NNE 5.2 mm  13.2 °C 15.9 °C
Posina loc. Contrà Boni (VI) 19/05/19 12.14 9.6 °C 97 % 9.1 °C 1007.6 hPa 1.6 Km/h N 42.4 mm  8.0 °C 9.8 °C
Pozzolo Formigaro (AL) 19/05/19 12.14 13.0 °C 96 % 12.4 °C 1005.3 hPa 3.0 Km/h NNW 2.0 mm  11.1 °C 13.1 °C
Pray (BI) 19/05/19 12.14 12.6 °C 97 % 12.1 °C 1004.0 hPa 5.0 Km/h ESE 5.4 mm  9.2 °C 12.6 °C
Reggello (FI) 19/05/19 12.15 13.3 °C 87 % 11.2 °C 1007.0 hPa 6.4 Km/h E 4.4 mm  11.3 °C 14.6 °C
Riccione (RN) 19/05/19 12.14 16.1 °C 93 % 15.0 °C 1002.2 hPa 8.0 Km/h ENE 0.5 mm  13.5 °C 16.2 °C
Rifugio Bocca di Selva (VR) 19/05/19 12.18 5.0 °C 94 % 4.1 °C 1005.5 hPa 30.6 Km/h E 14.1 mm  3.9 °C 5.2 °C
Rifugio Castelberto (VR) 19/05/19 12.20 2.4 °C 99 % 2.2 °C 1006.4 hPa 20.9 Km/h E 13.0 mm  1.6 °C 2.6 °C
Rifugio Fiori del Baldo (VR) 19/05/19 07.00 2.4 °C 100 % 2.4 °C 1005.9 hPa 37.2 Km/h E 0.2 mm  2.2 °C 2.9 °C
Rifugio la Guardia ARPAV (VI) 19/05/19 11.00 6.6 °C 100 % 6.6 °C  hPa 2.9 Km/h WSW 44.2 mm  5.9 °C 6.8 °C
Rifugio Primaneve (VR) 19/05/19 12.14 2.5 °C 100 % 2.5 °C 1006.5 hPa 21.5 Km/h NE 6.4 mm  1.7 °C 3.1 °C
Rimini (RN) 19/05/19 12.10 16.9 °C 83 % 14.0 °C 1003.5 hPa 0.0 Km/h NNE 0.5 mm  13.7 °C 17.1 °C
Rimini Zona Palas (RN) 19/05/19 12.14 16.9 °C 84 % 14.2 °C 1003.5 hPa 9.7 Km/h NE 0.6 mm  13.3 °C 17.3 °C
Rivalta sul Mincio (MN) 19/05/19 12.12 13.9 °C 94 % 13.0 °C 1004.2 hPa 5.0 Km/h N 17.4 mm  12.6 °C 14.1 °C
Rocca Priora (RM) 19/05/19 11.40 10.7 °C 88 % 8.8 °C 1007.1 hPa 9.7 Km/h SW 17.2 mm  9.8 °C 11.8 °C
Romano d'Ezzelino Fellette (VI) 19/05/19 12.18 13.0 °C 12 % -15.7 °C 1006.9 hPa 0.0 Km/h NNE 28.0 mm  11.3 °C 13.1 °C
Ronciglione Centro (VT) 19/05/19 12.15 13.3 °C 98 % 13.0 °C 1005.0 hPa 5.4 Km/h SSW 14.0 mm  11.1 °C 13.5 °C
Ronciglione - Ponte Cuzzoli (VT) 19/05/19 12.18 14.7 °C 83 % 11.8 °C 1004.6 hPa 1.6 Km/h SW 16.8 mm  10.1 °C 14.3 °C
Rossano Veneto (VI) 19/05/19 12.19 13.2 °C 95 % 12.4 °C 1004.2 hPa 0.0 Km/h NE 2.8 mm  11.7 °C 13.2 °C
Roverchiara ARPAV (VR) 19/05/19 09.00 12.8 °C 100 % 12.8 °C  hPa 13.3 Km/h NE 1.2 mm  12.3 °C 13.0 °C
S. Donà di Piave (VE) 19/05/19 06.37 13.0 °C 96 % 12.4 °C 1004.1 hPa 1.6 Km/h NE 1.5 mm  13.0 °C 13.5 °C
S. Giovanni Ilarione2 (VR) 19/05/19 12.15 12.8 °C 93 % 11.7 °C 1004.1 hPa 0.0 Km/h NW 18.8 mm  11.9 °C 13.2 °C
S. Giovanni Lupatoto (VR) 19/05/19 12.10 13.9 °C 93 % 12.8 °C 1004.6 hPa 3.2 Km/h ESE 5.4 mm  13.3 °C 14.6 °C
S. Giovanni Rotondo (FG) 19/05/19 12.18 17.3 °C 63 % 10.2 °C 1003.7 hPa 12.9 Km/h SSE 0.0 mm  10.8 °C 17.4 °C
S. Lorenzo di Vittorio Veneto (TV) 19/05/19 12.15 13.5 °C 89 % 11.7 °C 1005.7 hPa 0.0 Km/h N 32.8 mm  10.8 °C 13.5 °C
S. Lorenzo Nuovo (VT) 19/05/19 12.15 10.8 °C 96 % 10.2 °C 1003.8 hPa 0.0 Km/h S 17.7 mm  10.3 °C 12.1 °C
S. Maria di Zevio Loc. 3 Ponti (VR) 14/05/19 10.42 15.0 °C 62 % 7.8 °C 1020.7 hPa 16.1 Km/h E 0.0 mm  11.7 °C 15.0 °C
S. Maria Maddalena (RO) 19/05/19 12.15 17.8 °C 83 % 15.0 °C 1002.5 hPa 1.7 Km/h WSW 0.0 mm  13.8 °C 18.1 °C
S. Martino Lupari (PD) 19/05/19 12.10 13.4 °C 96 % 12.8 °C 838.0 hPa 1.6 Km/h NE 24.2 mm  11.8 °C 13.4 °C
S. Rocco di Villabalzana (VI) 19/05/19 12.17 12.0 °C 96 % 11.7 °C 1004.2 hPa 3.2 Km/h NE 32.5 mm  10.9 °C 12.1 °C
Sacile (PN) 19/05/19 06.55 13.1 °C 85 % 10.7 °C 1005.6 hPa 3.2 Km/h NE 7.6 mm  12.9 °C 13.8 °C
Sacile2 (PN) 19/05/19 12.15 14.8 °C 90 % 13.2 °C 1006.0 hPa 4.7 Km/h E 11.4 mm  13.0 °C 16.1 °C
Salcedo (VI) 19/05/19 12.19 10.4 °C 81 % 7.3 °C 1004.2 hPa 0.0 Km/h WNW 67.8 mm  9.4 °C 10.5 °C
San Benedetto del Tronto (AP) 19/05/19 11.30 20.9 °C 64 % 13.8 °C 998.5 hPa 3.7 Km/h ENE 0.0 mm  15.0 °C 21.5 °C
San Bortolo ARPAV (VR) 19/05/19 12.00 7.6 °C  %  °C  hPa 7.2 Km/h S 27.4 mm  7.3 °C 7.8 °C
San Giovanni la Punta Trappeto (CT) 19/05/19 12.15 20.7 °C 67 % 14.4 °C 1007.5 hPa 14.5 Km/h SE 0.0 mm  13.3 °C 21.8 °C
San Nazario (VI) 19/05/19 12.18 12.2 °C 90 % 10.6 °C 1004.2 hPa 7.2 Km/h NE 30.0 mm  11.0 °C 12.5 °C
San Pietro di Rosà (VI) 19/05/19 12.18 12.8 °C 95 % 12.0 °C 1007.9 hPa 6.5 Km/h NNW 36.6 mm  11.6 °C 12.9 °C
San Pietro in Cariano (VR) 19/05/19 05.45 11.8 °C 96 % 11.2 °C 1003.9 hPa 0.0 Km/h SW 3.0 mm  11.7 °C 13.4 °C
San Potito Lugo (RA) 15/05/19 09.55 8.2 °C 95 % 7.4 °C 1006.2 hPa 6.1 Km/h NW 4.8 mm  5.9 °C 8.2 °C
San Salvo3 (CH) 19/05/19 12.19 15.9 °C 87 % 13.8 °C 1000.6 hPa 3.2 Km/h NNE 2.1 mm  12.5 °C 19.9 °C
San Vito di Negrar (VR) 19/05/19 12.10 14.4 °C 90 % 12.8 °C 1004.6 hPa 1.6 Km/h SE 7.8 mm  12.3 °C 15.5 °C
San Zeno di Mont. Loc. Castello (VR) 19/05/19 12.15 10.9 °C 77 % 7.2 °C 1002.9 hPa 1.4 Km/h SSW 5.1 mm  8.9 °C 11.2 °C
Santa Maria di Negrar (VR) 19/05/19 07.04 12.5 °C 94 % 11.5 °C 1005.0 hPa 0.0 Km/h WSW 1.8 mm  12.2 °C 12.8 °C
Sarcedo (VI) 19/05/19 12.14 11.9 °C 96 % 11.3 °C 1003.5 hPa 3.2 Km/h NW 59.8 mm  10.9 °C 11.9 °C
Schio (VI) 19/05/19 11.50 12.4 °C 95 % 11.6 °C 1006.3 hPa 0.0 Km/h N 41.0 mm  11.2 °C 12.4 °C
Schio Monte Magré (VI) 19/05/19 12.19 11.2 °C 96 % 10.6 °C 0.0 hPa 0.0 Km/h WNW 39.0 mm  10.3 °C 11.6 °C
Selva di Progno (VR) 19/05/19 07.00 9.4 °C 82 % 6.4 °C 1002.6 hPa 0.0 Km/h WNW 2.8 mm  9.3 °C 9.6 °C
Seremange Erzange (Moselle) 19/05/19 12.18 13.7 °C 93 % 12.6 °C 1005.8 hPa 3.2 Km/h WSW 1.8 mm  11.4 °C 13.6 °C
Sinnai (CA) 19/05/19 12.00 17.9 °C 58 % 9.6 °C 1008.7 hPa 8.0 Km/h NNE 0.0 mm  12.1 °C 19.9 °C
Soave Borgo Bassano (VR) 19/05/19 12.15 14.0 °C 89 % 12.2 °C 1004.6 hPa 6.0 Km/h NE 7.6 mm  13.1 °C 14.4 °C
Sona Loc. La Colombara (VR) 19/05/19 12.00 14.0 °C 92 % 12.7 °C 1000.6 hPa 3.0 Km/h NNE 6.9 mm  12.0 °C 14.0 °C
Sorgà ARPAV (VR) 19/05/19 12.00 13.9 °C 92 % 12.6 °C  hPa 22.7 Km/h NE 2.8 mm  12.9 °C 14.0 °C
Soriso (NO) 19/05/19 12.10 12.2 °C 97 % 11.8 °C 1004.9 hPa 0.0 Km/h NNE 8.9 mm  9.8 °C 12.6 °C
Spoltore (PE) 19/05/19 00.56 14.7 °C 94 % 13.7 °C 1006.0 hPa 4.7 Km/h E 0.0 mm  14.7 °C 14.8 °C
Staranzano (GO) 19/05/19 07.00 13.3 °C 93 % 12.2 °C 1006.0 hPa 1.6 Km/h NNE 1.5 mm  13.2 °C 13.8 °C
Stiore - Monteveglio (BO) 19/05/19 12.18 13.4 °C 94 % 12.5 °C 1000.8 hPa 4.8 Km/h WNW 0.5 mm  11.6 °C 13.6 °C
Taio Mollaro (TN) 19/05/19 12.18 13.4 °C 86 % 11.1 °C 1007.4 hPa 0.0 Km/h W 13.4 mm  8.6 °C 13.2 °C
Taranto (TA) 19/05/19 12.18 18.4 °C 79 % 14.7 °C 1000.8 hPa 8.2 Km/h WSW 0.0 mm  16.6 °C 19.7 °C
Todi (PG) 19/05/19 12.15 11.8 °C 80 % 8.4 °C 1003.8 hPa 0.0 Km/h SE 7.2 mm  11.5 °C 13.6 °C
Tombolo (PD) 19/05/19 12.19 13.3 °C 96 % 12.7 °C 1005.0 hPa 5.0 Km/h NNE 30.4 mm  11.7 °C 13.3 °C
Torino Regio Parco (TO) 19/05/19 12.19 12.6 °C 92 % 11.3 °C 1005.7 hPa 1.7 Km/h NNE 8.6 mm  11.2 °C 12.6 °C
Torremaggiore (FG) 19/05/19 12.15 19.6 °C 64 % 12.6 °C 1002.1 hPa 1.5 Km/h SSE 0.0 mm  12.3 °C 20.7 °C
Torrita di Siena (SI) 19/05/19 11.45 15.6 °C 86 % 13.3 °C 1004.7 hPa 0.0 Km/h --- 2.4 mm  11.7 °C 15.6 °C
Trambileno (TN) 19/05/19 12.14 10.0 °C 94 % 9.1 °C 1003.8 hPa 0.0 Km/h NNW 7.1 mm  8.0 °C 10.0 °C
Tregnago (VR) 19/05/19 07.00 12.2 °C 84 % 9.6 °C 1003.3 hPa 0.0 Km/h ENE 1.5 mm  11.9 °C 12.8 °C
Trento (TN) 19/05/19 12.14 12.7 °C 86 % 10.4 °C 1004.7 hPa 3.2 Km/h NE 13.8 mm  10.9 °C 12.7 °C
Treviso (TV) 19/05/19 12.15 13.7 °C 99 % 13.6 °C 1004.4 hPa 1.0 Km/h NE 4.8 mm  1.5 °C 14.2 °C
Turcati ARPAV (VI) 19/05/19 12.00 9.1 °C 100 % 9.1 °C  hPa 0.0 Km/h 49.4 mm  7.9 °C 9.2 °C
Tuscania (VT) 19/05/19 10.15 14.0 °C 93 % 12.9 °C 1004.7 hPa 1.7 Km/h SSE 0.0 mm  12.6 °C 14.0 °C
Val Lastaro (VI) 19/05/19 12.10 6.6 °C 97 % 6.1 °C 1006.0 hPa 0.0 Km/h NNE 45.2 mm  4.9 °C 10.2 °C
Valdagno (VI) 19/05/19 12.15 11.7 °C 95 % 10.9 °C 1007.1 hPa 7.2 Km/h W 35.4 mm  10.6 °C 12.0 °C
Valdobbiadene San Pietro di Barbozza (TV) 19/05/19 12.10 13.2 °C 89 % 11.4 °C 1004.1 hPa 11.3 Km/h ENE 28.2 mm  10.2 °C 13.3 °C
Valentano (VT) 19/05/19 12.18 11.7 °C 94 % 10.6 °C 1003.3 hPa 0.0 Km/h WSW 11.2 mm  10.4 °C 12.7 °C
Valenza (AL) 19/05/19 12.19 12.6 °C 95 % 11.8 °C 1003.8 hPa 4.8 Km/h NW 6.3 mm  11.1 °C 12.7 °C
Valli del Pasubio loc. Gisbenti (VI) 19/05/19 12.16 10.6 °C 98 % 10.3 °C 961.0 hPa 0.0 Km/h --- 29.5 mm  9.3 °C 11.3 °C
Varese Ligure (SP) 19/05/19 12.17 14.4 °C 86 % 12.1 °C 998.2 hPa 4.0 Km/h NE 1.8 mm  10.5 °C 14.5 °C
Vasto (CH) 19/05/19 12.15 17.4 °C 10 % -14.5 °C 1003.5 hPa 3.3 Km/h NE 0.0 mm  13.7 °C 19.7 °C
Vazzo Roveré Veronese (VR) 19/05/19 12.19 7.9 °C 92 % 6.7 °C 1001.7 hPa 11.3 Km/h ENE 16.9 mm  7.6 °C 8.4 °C
Verona Cadidavid2 (VR) 19/05/19 07.00 13.3 °C 79 % 9.7 °C 1002.3 hPa 10.4 Km/h E 2.8 mm  12.7 °C 14.3 °C
Vicenza Campedello (VI) 19/05/19 12.29 12.2 °C 98 % 12.2 °C 1005.4 hPa 3.2 Km/h WNW 32.5 mm  11.0 °C 12.2 °C
Vicenza Moracchino (VI) 19/05/19 12.19 12.8 °C 95 % 12.1 °C 1003.7 hPa 12.9 Km/h NNW 31.4 mm  11.7 °C 12.8 °C
Vicenza Pecori Giraldi (VI) 19/05/19 07.00 12.2 °C 100 % 12.2 °C 1002.5 hPa 2.3 Km/h N 7.9 mm  12.1 °C 12.8 °C
Vicenza S. Lazzaro (VI) 19/05/19 12.14 12.0 °C 95 % 11.2 °C 1004.0 hPa 3.0 Km/h NNE 31.0 mm  12.0 °C 12.0 °C
Vicenza San Gaetano (VI) 19/05/19 12.16 13.0 °C 100 % 13.0 °C 1004.5 hPa 0.0 Km/h NNW 38.6 mm  12.0 °C 13.0 °C
Vidor (TV) 19/05/19 12.16 14.3 °C 87 % 12.2 °C 1003.2 hPa 3.0 Km/h NE 24.3 mm  10.9 °C 14.4 °C
Vieste (FG) 19/05/19 12.19 20.1 °C 74 % 15.3 °C 1002.9 hPa 7.4 Km/h SE 0.0 mm  14.0 °C 20.1 °C
Vigardolo (VI) 19/05/19 12.15 12.7 °C 96 % 12.1 °C 1003.1 hPa 1.2 Km/h NNW 37.2 mm  11.2 °C 12.7 °C
Vigasio (VR) 19/05/19 12.00 14.6 °C 90 % 13.0 °C 1002.1 hPa 4.8 Km/h ENE 4.2 mm  13.3 °C 15.3 °C
Villabartolomea (VR) 19/05/19 12.14 14.7 °C 90 % 13.1 °C 1002.7 hPa 8.0 Km/h NE 7.4 mm  12.8 °C 14.8 °C
Villafranca di Verona ARPAV (VR) 19/05/19 12.00 13.7 °C 92 % 12.4 °C  hPa 7.9 Km/h E 3.0 mm  12.2 °C 14.3 °C
Villar Perosa (TO) 19/05/19 12.16 11.2 °C 92 % 10.0 °C 1004.8 hPa 0.0 Km/h SSW 10.2 mm  8.6 °C 11.2 °C
Viozene Toria (CN) 19/05/19 12.15 7.2 °C 83 % 4.5 °C 1000.8 hPa 3.0 Km/h E 5.4 mm  4.4 °C 7.5 °C
Viterbo Santa Barbara (VT) 19/05/19 12.19 14.3 °C 82 % 11.3 °C 1003.8 hPa 0.0 Km/h SSW 5.0 mm  11.1 °C 15.0 °C
Viterbo Strada Bagni (VT) 19/05/19 12.14 15.0 °C 87 % 12.9 °C 1003.9 hPa 0.0 Km/h NW 0.0 mm  11.0 °C 15.0 °C
Vitorchiano Pallone (VT) 19/05/19 12.10 15.1 °C 82 % 12.1 °C 1002.7 hPa 6.4 Km/h SW 5.3 mm  11.2 °C 15.3 °C
Vittorio Veneto Parco Fenderl (TV) 19/05/19 07.00 -999.9 °C 255 % -999.9 °C 1006.0 hPa 0.0 Km/h N 10.9 mm  -999.9 °C 12.1 °C
Volpago del Montello (TV) 19/05/19 12.15 14.1 °C 98 % 13.8 °C 1004.6 hPa 4.8 Km/h NE 33.0 mm  11.2 °C 14.1 °C
 
(*) = Precipitazioni nelle ultime 24h.
Dati non aggiornati nell'ultima ora.
   
In collaborazione con:
 
Top! Top!